sensor_id;sensor_type;location;lat;lon;timestamp;temperature;humidity
16402;DHT22;8310;44.626;11.176;2023-05-17T00:00:54;15.40;72.70
16402;DHT22;8310;44.626;11.176;2023-05-17T00:03:22;15.40;72.80
16402;DHT22;8310;44.626;11.176;2023-05-17T00:05:49;15.40;72.70
16402;DHT22;8310;44.626;11.176;2023-05-17T00:08:16;15.40;72.50
16402;DHT22;8310;44.626;11.176;2023-05-17T00:10:44;15.40;72.30
16402;DHT22;8310;44.626;11.176;2023-05-17T00:13:12;15.40;72.30
16402;DHT22;8310;44.626;11.176;2023-05-17T00:15:41;15.40;72.20
16402;DHT22;8310;44.626;11.176;2023-05-17T00:18:08;15.40;72.10
16402;DHT22;8310;44.626;11.176;2023-05-17T00:20:35;15.40;72.10
16402;DHT22;8310;44.626;11.176;2023-05-17T00:23:02;15.40;72.10
16402;DHT22;8310;44.626;11.176;2023-05-17T00:25:29;15.40;72.00
16402;DHT22;8310;44.626;11.176;2023-05-17T00:27:57;15.30;71.90
16402;DHT22;8310;44.626;11.176;2023-05-17T00:30:25;15.30;71.80
16402;DHT22;8310;44.626;11.176;2023-05-17T00:32:54;15.30;71.90
16402;DHT22;8310;44.626;11.176;2023-05-17T00:35:21;15.30;71.90
16402;DHT22;8310;44.626;11.176;2023-05-17T00:37:49;15.30;71.80
16402;DHT22;8310;44.626;11.176;2023-05-17T00:40:16;15.30;71.80
16402;DHT22;8310;44.626;11.176;2023-05-17T00:42:44;15.30;71.80
16402;DHT22;8310;44.626;11.176;2023-05-17T00:45:12;15.30;71.80
16402;DHT22;8310;44.626;11.176;2023-05-17T00:47:39;15.30;71.80
16402;DHT22;8310;44.626;11.176;2023-05-17T00:50:09;15.30;71.80
16402;DHT22;8310;44.626;11.176;2023-05-17T00:52:36;15.30;71.80
16402;DHT22;8310;44.626;11.176;2023-05-17T00:55:04;15.30;71.70
16402;DHT22;8310;44.626;11.176;2023-05-17T00:57:32;15.30;71.80
16402;DHT22;8310;44.626;11.176;2023-05-17T00:59:59;15.30;71.80
16402;DHT22;8310;44.626;11.176;2023-05-17T01:02:26;15.30;71.80
16402;DHT22;8310;44.626;11.176;2023-05-17T01:04:54;15.30;71.80
16402;DHT22;8310;44.626;11.176;2023-05-17T01:07:22;15.30;71.80
16402;DHT22;8310;44.626;11.176;2023-05-17T01:09:50;15.30;71.80
16402;DHT22;8310;44.626;11.176;2023-05-17T01:12:22;15.30;71.80
16402;DHT22;8310;44.626;11.176;2023-05-17T01:14:53;15.30;71.80
16402;DHT22;8310;44.626;11.176;2023-05-17T01:17:27;15.30;71.70
16402;DHT22;8310;44.626;11.176;2023-05-17T01:20:00;15.30;71.70
16402;DHT22;8310;44.626;11.176;2023-05-17T01:22:35;15.30;71.70
16402;DHT22;8310;44.626;11.176;2023-05-17T01:25:15;15.30;71.70
16402;DHT22;8310;44.626;11.176;2023-05-17T01:27:50;15.30;71.70
16402;DHT22;8310;44.626;11.176;2023-05-17T01:30:18;15.30;71.70
16402;DHT22;8310;44.626;11.176;2023-05-17T01:32:46;15.30;71.70
16402;DHT22;8310;44.626;11.176;2023-05-17T01:35:13;15.20;71.70
16402;DHT22;8310;44.626;11.176;2023-05-17T01:37:41;15.30;71.80
16402;DHT22;8310;44.626;11.176;2023-05-17T01:40:09;15.30;71.90
16402;DHT22;8310;44.626;11.176;2023-05-17T01:42:37;15.30;71.80
16402;DHT22;8310;44.626;11.176;2023-05-17T01:45:08;15.30;71.80
16402;DHT22;8310;44.626;11.176;2023-05-17T01:47:38;15.30;71.80
16402;DHT22;8310;44.626;11.176;2023-05-17T01:50:09;15.30;72.70
16402;DHT22;8310;44.626;11.176;2023-05-17T01:52:41;15.30;71.70
16402;DHT22;8310;44.626;11.176;2023-05-17T01:55:14;15.30;71.90
16402;DHT22;8310;44.626;11.176;2023-05-17T01:57:44;15.30;72.90
16402;DHT22;8310;44.626;11.176;2023-05-17T02:00:16;15.30;72.10
16402;DHT22;8310;44.626;11.176;2023-05-17T02:02:45;15.30;72.00
16402;DHT22;8310;44.626;11.176;2023-05-17T02:05:12;15.30;71.90
16402;DHT22;8310;44.626;11.176;2023-05-17T02:07:39;15.30;72.00
16402;DHT22;8310;44.626;11.176;2023-05-17T02:10:07;15.30;72.10
16402;DHT22;8310;44.626;11.176;2023-05-17T02:12:34;15.30;72.10
16402;DHT22;8310;44.626;11.176;2023-05-17T02:15:02;15.30;71.90
16402;DHT22;8310;44.626;11.176;2023-05-17T02:17:30;15.30;72.70
16402;DHT22;8310;44.626;11.176;2023-05-17T02:19:58;15.30;71.90
16402;DHT22;8310;44.626;11.176;2023-05-17T02:22:26;15.30;71.90
16402;DHT22;8310;44.626;11.176;2023-05-17T02:24:53;15.20;71.90
16402;DHT22;8310;44.626;11.176;2023-05-17T02:27:21;15.20;71.90
16402;DHT22;8310;44.626;11.176;2023-05-17T02:29:49;15.20;71.90
16402;DHT22;8310;44.626;11.176;2023-05-17T02:32:16;15.20;71.90
16402;DHT22;8310;44.626;11.176;2023-05-17T02:34:45;15.30;72.30
16402;DHT22;8310;44.626;11.176;2023-05-17T02:37:12;15.20;72.10
16402;DHT22;8310;44.626;11.176;2023-05-17T02:39:40;15.20;72.10
16402;DHT22;8310;44.626;11.176;2023-05-17T02:42:07;15.30;72.70
16402;DHT22;8310;44.626;11.176;2023-05-17T02:44:34;15.30;73.00
16402;DHT22;8310;44.626;11.176;2023-05-17T02:47:02;15.30;72.30
16402;DHT22;8310;44.626;11.176;2023-05-17T02:49:29;15.30;72.20
16402;DHT22;8310;44.626;11.176;2023-05-17T02:51:58;15.30;72.30
16402;DHT22;8310;44.626;11.176;2023-05-17T02:54:26;15.30;72.20
16402;DHT22;8310;44.626;11.176;2023-05-17T02:56:53;15.30;72.30
16402;DHT22;8310;44.626;11.176;2023-05-17T02:59:21;15.30;72.20
16402;DHT22;8310;44.626;11.176;2023-05-17T03:01:48;15.30;72.10
16402;DHT22;8310;44.626;11.176;2023-05-17T03:04:16;15.30;72.10
16402;DHT22;8310;44.626;11.176;2023-05-17T03:06:44;15.30;72.50
16402;DHT22;8310;44.626;11.176;2023-05-17T03:09:13;15.30;72.60
16402;DHT22;8310;44.626;11.176;2023-05-17T03:11:40;15.30;72.30
16402;DHT22;8310;44.626;11.176;2023-05-17T03:14:08;15.30;72.40
16402;DHT22;8310;44.626;11.176;2023-05-17T03:16:35;15.30;72.40
16402;DHT22;8310;44.626;11.176;2023-05-17T03:19:02;15.30;72.40
16402;DHT22;8310;44.626;11.176;2023-05-17T03:21:30;15.30;72.60
16402;DHT22;8310;44.626;11.176;2023-05-17T03:23:57;15.20;72.10
16402;DHT22;8310;44.626;11.176;2023-05-17T03:26:25;15.30;72.90
16402;DHT22;8310;44.626;11.176;2023-05-17T03:28:52;15.20;72.90
16402;DHT22;8310;44.626;11.176;2023-05-17T03:31:19;15.20;72.90
16402;DHT22;8310;44.626;11.176;2023-05-17T03:33:47;15.20;73.20
16402;DHT22;8310;44.626;11.176;2023-05-17T03:36:14;15.20;73.00
16402;DHT22;8310;44.626;11.176;2023-05-17T03:38:41;15.20;73.20
16402;DHT22;8310;44.626;11.176;2023-05-17T03:41:09;15.20;72.30
16402;DHT22;8310;44.626;11.176;2023-05-17T03:43:38;15.20;72.60
16402;DHT22;8310;44.626;11.176;2023-05-17T03:46:05;15.20;72.70
16402;DHT22;8310;44.626;11.176;2023-05-17T03:48:33;15.20;72.40
16402;DHT22;8310;44.626;11.176;2023-05-17T03:51:00;15.20;73.00
16402;DHT22;8310;44.626;11.176;2023-05-17T03:53:28;15.20;73.00
16402;DHT22;8310;44.626;11.176;2023-05-17T03:55:55;15.20;73.30
16402;DHT22;8310;44.626;11.176;2023-05-17T03:58:22;15.20;72.80
16402;DHT22;8310;44.626;11.176;2023-05-17T04:00:51;15.20;72.80
16402;DHT22;8310;44.626;11.176;2023-05-17T04:03:19;15.20;73.40
16402;DHT22;8310;44.626;11.176;2023-05-17T04:05:47;15.20;73.80
16402;DHT22;8310;44.626;11.176;2023-05-17T04:08:14;15.20;73.30
16402;DHT22;8310;44.626;11.176;2023-05-17T04:10:41;15.20;72.90
16402;DHT22;8310;44.626;11.176;2023-05-17T04:13:09;15.20;72.80
16402;DHT22;8310;44.626;11.176;2023-05-17T04:15:36;15.20;73.30
16402;DHT22;8310;44.626;11.176;2023-05-17T04:18:05;15.10;73.30
16402;DHT22;8310;44.626;11.176;2023-05-17T04:20:32;15.10;72.90
16402;DHT22;8310;44.626;11.176;2023-05-17T04:22:59;15.20;73.10
16402;DHT22;8310;44.626;11.176;2023-05-17T04:25:26;15.20;72.80
16402;DHT22;8310;44.626;11.176;2023-05-17T04:27:54;15.10;73.50
16402;DHT22;8310;44.626;11.176;2023-05-17T04:30:21;15.10;73.10
16402;DHT22;8310;44.626;11.176;2023-05-17T04:32:48;15.10;73.10
16402;DHT22;8310;44.626;11.176;2023-05-17T04:35:18;15.10;73.30
16402;DHT22;8310;44.626;11.176;2023-05-17T04:37:45;15.10;73.80
16402;DHT22;8310;44.626;11.176;2023-05-17T04:40:12;15.10;73.40
16402;DHT22;8310;44.626;11.176;2023-05-17T04:42:40;15.10;73.40
16402;DHT22;8310;44.626;11.176;2023-05-17T04:45:08;15.10;73.50
16402;DHT22;8310;44.626;11.176;2023-05-17T04:47:35;15.10;73.10
16402;DHT22;8310;44.626;11.176;2023-05-17T04:50:05;15.10;73.60
16402;DHT22;8310;44.626;11.176;2023-05-17T04:52:34;15.10;72.70
16402;DHT22;8310;44.626;11.176;2023-05-17T04:55:01;15.10;72.70
16402;DHT22;8310;44.626;11.176;2023-05-17T04:57:29;15.10;72.90
16402;DHT22;8310;44.626;11.176;2023-05-17T04:59:56;15.10;72.80
16402;DHT22;8310;44.626;11.176;2023-05-17T05:02:24;15.10;73.10
16402;DHT22;8310;44.626;11.176;2023-05-17T05:04:51;15.10;73.50
16402;DHT22;8310;44.626;11.176;2023-05-17T05:07:18;15.10;72.90
16402;DHT22;8310;44.626;11.176;2023-05-17T05:09:47;15.10;73.20
16402;DHT22;8310;44.626;11.176;2023-05-17T05:12:14;15.10;73.50
16402;DHT22;8310;44.626;11.176;2023-05-17T05:14:42;15.10;74.40
16402;DHT22;8310;44.626;11.176;2023-05-17T05:17:09;15.10;73.30
16402;DHT22;8310;44.626;11.176;2023-05-17T05:19:36;15.10;73.20
16402;DHT22;8310;44.626;11.176;2023-05-17T05:22:04;15.10;73.00
16402;DHT22;8310;44.626;11.176;2023-05-17T05:24:31;15.10;72.80
16402;DHT22;8310;44.626;11.176;2023-05-17T05:27:00;15.10;72.80
16402;DHT22;8310;44.626;11.176;2023-05-17T05:29:28;15.10;72.90
16402;DHT22;8310;44.626;11.176;2023-05-17T05:31:55;15.10;72.90
16402;DHT22;8310;44.626;11.176;2023-05-17T05:34:25;15.10;73.30
16402;DHT22;8310;44.626;11.176;2023-05-17T05:36:55;15.10;73.80
16402;DHT22;8310;44.626;11.176;2023-05-17T05:39:23;15.10;73.10
16402;DHT22;8310;44.626;11.176;2023-05-17T05:41:50;15.10;73.00
16402;DHT22;8310;44.626;11.176;2023-05-17T05:44:19;15.10;73.10
16402;DHT22;8310;44.626;11.176;2023-05-17T05:46:46;15.20;73.30
16402;DHT22;8310;44.626;11.176;2023-05-17T05:49:13;15.10;73.30
16402;DHT22;8310;44.626;11.176;2023-05-17T05:51:41;15.20;73.50
16402;DHT22;8310;44.626;11.176;2023-05-17T05:54:08;15.20;73.20
16402;DHT22;8310;44.626;11.176;2023-05-17T05:56:35;15.20;73.10
16402;DHT22;8310;44.626;11.176;2023-05-17T05:59:02;15.20;73.00
16402;DHT22;8310;44.626;11.176;2023-05-17T06:01:31;15.20;73.20
16402;DHT22;8310;44.626;11.176;2023-05-17T06:03:58;15.20;72.90
16402;DHT22;8310;44.626;11.176;2023-05-17T06:06:26;15.20;72.70
16402;DHT22;8310;44.626;11.176;2023-05-17T06:08:53;15.20;72.90
16402;DHT22;8310;44.626;11.176;2023-05-17T06:11:20;15.20;72.80
16402;DHT22;8310;44.626;11.176;2023-05-17T06:13:54;15.20;72.80
16402;DHT22;8310;44.626;11.176;2023-05-17T06:16:21;15.20;73.20
16402;DHT22;8310;44.626;11.176;2023-05-17T06:18:50;15.20;73.10
16402;DHT22;8310;44.626;11.176;2023-05-17T06:21:17;15.10;72.90
16402;DHT22;8310;44.626;11.176;2023-05-17T06:23:44;15.10;72.90
16402;DHT22;8310;44.626;11.176;2023-05-17T06:26:11;15.10;73.10
16402;DHT22;8310;44.626;11.176;2023-05-17T06:28:39;15.20;73.80
16402;DHT22;8310;44.626;11.176;2023-05-17T06:31:06;15.20;73.50
16402;DHT22;8310;44.626;11.176;2023-05-17T06:33:33;15.20;73.40
16402;DHT22;8310;44.626;11.176;2023-05-17T06:36:02;15.20;73.40
16402;DHT22;8310;44.626;11.176;2023-05-17T06:38:29;15.30;73.80
16402;DHT22;8310;44.626;11.176;2023-05-17T06:40:57;15.30;74.20
16402;DHT22;8310;44.626;11.176;2023-05-17T06:43:24;15.30;73.70
16402;DHT22;8310;44.626;11.176;2023-05-17T06:45:51;15.30;73.60
16402;DHT22;8310;44.626;11.176;2023-05-17T06:48:19;15.30;73.60
16402;DHT22;8310;44.626;11.176;2023-05-17T06:50:46;15.30;73.90
16402;DHT22;8310;44.626;11.176;2023-05-17T06:53:15;15.30;73.70
16402;DHT22;8310;44.626;11.176;2023-05-17T06:55:42;15.30;73.80
16402;DHT22;8310;44.626;11.176;2023-05-17T06:58:09;15.30;73.70
16402;DHT22;8310;44.626;11.176;2023-05-17T07:00:37;15.30;73.80
16402;DHT22;8310;44.626;11.176;2023-05-17T07:03:04;15.30;73.50
16402;DHT22;8310;44.626;11.176;2023-05-17T07:05:31;15.40;73.80
16402;DHT22;8310;44.626;11.176;2023-05-17T07:07:59;15.40;74.40
16402;DHT22;8310;44.626;11.176;2023-05-17T07:10:28;15.40;73.60
16402;DHT22;8310;44.626;11.176;2023-05-17T07:12:55;15.40;73.70
16402;DHT22;8310;44.626;11.176;2023-05-17T07:15:22;15.40;74.50
16402;DHT22;8310;44.626;11.176;2023-05-17T07:17:50;15.50;75.30
16402;DHT22;8310;44.626;11.176;2023-05-17T07:20:18;15.50;74.10
16402;DHT22;8310;44.626;11.176;2023-05-17T07:22:45;15.50;73.80
16402;DHT22;8310;44.626;11.176;2023-05-17T07:25:12;15.50;73.80
16402;DHT22;8310;44.626;11.176;2023-05-17T07:27:41;15.50;73.80
16402;DHT22;8310;44.626;11.176;2023-05-17T07:30:09;15.60;74.00
16402;DHT22;8310;44.626;11.176;2023-05-17T07:32:36;15.60;73.80
16402;DHT22;8310;44.626;11.176;2023-05-17T07:35:04;15.60;73.80
16402;DHT22;8310;44.626;11.176;2023-05-17T07:37:31;15.60;73.70
16402;DHT22;8310;44.626;11.176;2023-05-17T07:39:59;15.70;73.90
16402;DHT22;8310;44.626;11.176;2023-05-17T07:42:26;15.70;73.60
16402;DHT22;8310;44.626;11.176;2023-05-17T07:44:55;15.70;73.80
16402;DHT22;8310;44.626;11.176;2023-05-17T07:47:23;15.70;73.50
16402;DHT22;8310;44.626;11.176;2023-05-17T07:49:50;15.70;73.50
16402;DHT22;8310;44.626;11.176;2023-05-17T07:52:17;15.70;73.50
16402;DHT22;8310;44.626;11.176;2023-05-17T07:54:44;15.70;73.40
16402;DHT22;8310;44.626;11.176;2023-05-17T07:57:12;15.70;73.50
16402;DHT22;8310;44.626;11.176;2023-05-17T08:02:16;15.80;73.60
16402;DHT22;8310;44.626;11.176;2023-05-17T08:04:43;15.80;73.60
16402;DHT22;8310;44.626;11.176;2023-05-17T08:07:11;15.80;73.60
16402;DHT22;8310;44.626;11.176;2023-05-17T08:09:38;15.90;73.60
16402;DHT22;8310;44.626;11.176;2023-05-17T08:12:08;15.90;73.60
16402;DHT22;8310;44.626;11.176;2023-05-17T08:14:35;16.00;73.80
16402;DHT22;8310;44.626;11.176;2023-05-17T08:17:03;16.00;73.80
16402;DHT22;8310;44.626;11.176;2023-05-17T08:19:31;16.00;74.10
16402;DHT22;8310;44.626;11.176;2023-05-17T08:21:58;16.00;74.10
16402;DHT22;8310;44.626;11.176;2023-05-17T08:24:25;16.00;73.60
16402;DHT22;8310;44.626;11.176;2023-05-17T08:26:53;16.10;73.70
16402;DHT22;8310;44.626;11.176;2023-05-17T08:29:20;16.10;73.70
16402;DHT22;8310;44.626;11.176;2023-05-17T08:31:49;16.10;73.80
16402;DHT22;8310;44.626;11.176;2023-05-17T08:34:16;16.10;73.50
16402;DHT22;8310;44.626;11.176;2023-05-17T08:36:46;16.00;73.50
16402;DHT22;8310;44.626;11.176;2023-05-17T08:39:13;16.10;74.30
16402;DHT22;8310;44.626;11.176;2023-05-17T08:41:40;16.10;73.70
16402;DHT22;8310;44.626;11.176;2023-05-17T08:44:07;16.10;73.50
16402;DHT22;8310;44.626;11.176;2023-05-17T08:46:34;16.10;73.50
16402;DHT22;8310;44.626;11.176;2023-05-17T08:49:02;16.20;73.60
16402;DHT22;8310;44.626;11.176;2023-05-17T08:51:31;16.20;73.60
16402;DHT22;8310;44.626;11.176;2023-05-17T08:54:00;16.20;74.00
16402;DHT22;8310;44.626;11.176;2023-05-17T08:56:31;16.20;73.70
16402;DHT22;8310;44.626;11.176;2023-05-17T08:58:59;16.30;73.90
16402;DHT22;8310;44.626;11.176;2023-05-17T09:01:27;16.30;73.70
16402;DHT22;8310;44.626;11.176;2023-05-17T09:03:54;16.30;73.60
16402;DHT22;8310;44.626;11.176;2023-05-17T09:06:22;16.30;73.60
16402;DHT22;8310;44.626;11.176;2023-05-17T09:08:51;16.30;73.60
16402;DHT22;8310;44.626;11.176;2023-05-17T09:11:24;16.30;73.60
16402;DHT22;8310;44.626;11.176;2023-05-17T09:13:52;16.30;73.70
16402;DHT22;8310;44.626;11.176;2023-05-17T09:16:19;16.30;73.60
16402;DHT22;8310;44.626;11.176;2023-05-17T09:18:52;16.40;73.80
16402;DHT22;8310;44.626;11.176;2023-05-17T09:21:19;16.40;73.80
16402;DHT22;8310;44.626;11.176;2023-05-17T09:23:47;16.40;74.00
16402;DHT22;8310;44.626;11.176;2023-05-17T09:26:14;16.50;74.10
16402;DHT22;8310;44.626;11.176;2023-05-17T09:28:44;16.50;74.00
16402;DHT22;8310;44.626;11.176;2023-05-17T09:31:14;16.60;74.10
16402;DHT22;8310;44.626;11.176;2023-05-17T09:33:41;16.60;74.10
16402;DHT22;8310;44.626;11.176;2023-05-17T09:36:14;16.60;73.90
16402;DHT22;8310;44.626;11.176;2023-05-17T09:38:41;16.60;73.80
16402;DHT22;8310;44.626;11.176;2023-05-17T09:41:09;16.60;73.80
16402;DHT22;8310;44.626;11.176;2023-05-17T09:43:36;16.60;73.70
16402;DHT22;8310;44.626;11.176;2023-05-17T09:46:05;16.60;73.70
16402;DHT22;8310;44.626;11.176;2023-05-17T09:48:33;16.60;73.70
16402;DHT22;8310;44.626;11.176;2023-05-17T09:51:04;16.70;74.00
16402;DHT22;8310;44.626;11.176;2023-05-17T09:53:32;16.70;73.80
16402;DHT22;8310;44.626;11.176;2023-05-17T09:56:04;16.70;73.80
16402;DHT22;8310;44.626;11.176;2023-05-17T09:58:32;16.70;73.80
16402;DHT22;8310;44.626;11.176;2023-05-17T10:01:00;16.70;73.90
16402;DHT22;8310;44.626;11.176;2023-05-17T10:03:30;16.70;73.80
16402;DHT22;8310;44.626;11.176;2023-05-17T10:05:59;16.70;73.80
16402;DHT22;8310;44.626;11.176;2023-05-17T10:08:27;16.70;74.10
16402;DHT22;8310;44.626;11.176;2023-05-17T10:11:02;16.80;74.20
16402;DHT22;8310;44.626;11.176;2023-05-17T10:13:32;16.80;74.20
16402;DHT22;8310;44.626;11.176;2023-05-17T10:16:00;16.80;74.10
16402;DHT22;8310;44.626;11.176;2023-05-17T10:18:27;16.90;74.40
16402;DHT22;8310;44.626;11.176;2023-05-17T10:20:56;16.90;74.40
16402;DHT22;8310;44.626;11.176;2023-05-17T10:23:24;16.90;74.20
16402;DHT22;8310;44.626;11.176;2023-05-17T10:25:52;16.90;74.50
16402;DHT22;8310;44.626;11.176;2023-05-17T10:28:19;16.90;74.30
16402;DHT22;8310;44.626;11.176;2023-05-17T10:30:47;16.90;74.00
16402;DHT22;8310;44.626;11.176;2023-05-17T10:33:15;17.00;74.00
16402;DHT22;8310;44.626;11.176;2023-05-17T10:35:43;17.00;73.80
16402;DHT22;8310;44.626;11.176;2023-05-17T10:38:12;17.00;73.80
16402;DHT22;8310;44.626;11.176;2023-05-17T10:40:39;17.00;73.80
16402;DHT22;8310;44.626;11.176;2023-05-17T10:43:08;17.00;73.90
16402;DHT22;8310;44.626;11.176;2023-05-17T10:45:36;17.00;74.00
16402;DHT22;8310;44.626;11.176;2023-05-17T10:48:04;17.00;74.00
16402;DHT22;8310;44.626;11.176;2023-05-17T10:50:32;17.10;74.20
16402;DHT22;8310;44.626;11.176;2023-05-17T10:52:59;17.10;74.20
16402;DHT22;8310;44.626;11.176;2023-05-17T10:55:36;17.20;74.20
16402;DHT22;8310;44.626;11.176;2023-05-17T10:58:13;17.20;74.30
16402;DHT22;8310;44.626;11.176;2023-05-17T11:00:44;17.30;74.40
16402;DHT22;8310;44.626;11.176;2023-05-17T11:03:14;17.30;74.80
16402;DHT22;8310;44.626;11.176;2023-05-17T11:05:42;17.40;74.40
16402;DHT22;8310;44.626;11.176;2023-05-17T11:08:11;17.40;74.50
16402;DHT22;8310;44.626;11.176;2023-05-17T11:10:40;17.50;74.60
16402;DHT22;8310;44.626;11.176;2023-05-17T11:13:27;17.60;74.80
16402;DHT22;8310;44.626;11.176;2023-05-17T11:16:03;17.60;74.60
16402;DHT22;8310;44.626;11.176;2023-05-17T11:18:47;17.70;74.90
16402;DHT22;8310;44.626;11.176;2023-05-17T11:21:14;17.70;74.60
16402;DHT22;8310;44.626;11.176;2023-05-17T11:23:42;17.80;75.00
16402;DHT22;8310;44.626;11.176;2023-05-17T11:26:20;17.80;74.60
16402;DHT22;8310;44.626;11.176;2023-05-17T11:28:47;17.80;74.60
16402;DHT22;8310;44.626;11.176;2023-05-17T11:31:15;17.80;74.60
16402;DHT22;8310;44.626;11.176;2023-05-17T11:33:43;17.80;74.30
16402;DHT22;8310;44.626;11.176;2023-05-17T11:36:14;17.90;74.50
16402;DHT22;8310;44.626;11.176;2023-05-17T11:38:43;17.90;74.50
16402;DHT22;8310;44.626;11.176;2023-05-17T11:41:19;18.00;74.60
16402;DHT22;8310;44.626;11.176;2023-05-17T11:43:46;18.00;74.50
16402;DHT22;8310;44.626;11.176;2023-05-17T11:46:18;18.00;74.50
16402;DHT22;8310;44.626;11.176;2023-05-17T11:48:46;18.10;74.60
16402;DHT22;8310;44.626;11.176;2023-05-17T11:51:13;18.10;74.60
16402;DHT22;8310;44.626;11.176;2023-05-17T11:53:41;18.10;74.40
16402;DHT22;8310;44.626;11.176;2023-05-17T11:56:09;18.10;74.30
16402;DHT22;8310;44.626;11.176;2023-05-17T11:58:38;18.10;74.30
16402;DHT22;8310;44.626;11.176;2023-05-17T12:01:06;18.10;74.30
16402;DHT22;8310;44.626;11.176;2023-05-17T12:03:34;18.10;74.20
16402;DHT22;8310;44.626;11.176;2023-05-17T12:06:03;18.10;74.30
16402;DHT22;8310;44.626;11.176;2023-05-17T12:08:30;18.10;74.30
16402;DHT22;8310;44.626;11.176;2023-05-17T12:10:58;18.20;74.30
16402;DHT22;8310;44.626;11.176;2023-05-17T12:13:27;18.20;74.30
16402;DHT22;8310;44.626;11.176;2023-05-17T12:15:56;18.20;74.20
16402;DHT22;8310;44.626;11.176;2023-05-17T12:18:32;18.20;74.20
16402;DHT22;8310;44.626;11.176;2023-05-17T12:21:00;18.20;74.20
16402;DHT22;8310;44.626;11.176;2023-05-17T12:23:28;18.20;74.20
16402;DHT22;8310;44.626;11.176;2023-05-17T12:26:02;18.20;74.20
16402;DHT22;8310;44.626;11.176;2023-05-17T12:28:30;18.20;74.40
16402;DHT22;8310;44.626;11.176;2023-05-17T12:30:59;18.20;74.20
16402;DHT22;8310;44.626;11.176;2023-05-17T12:33:28;18.20;74.10
16402;DHT22;8310;44.626;11.176;2023-05-17T12:35:57;18.20;74.10
16402;DHT22;8310;44.626;11.176;2023-05-17T12:38:24;18.20;74.20
16402;DHT22;8310;44.626;11.176;2023-05-17T12:40:53;18.20;74.20
16402;DHT22;8310;44.626;11.176;2023-05-17T12:43:22;18.30;74.50
16402;DHT22;8310;44.626;11.176;2023-05-17T12:45:49;18.30;74.60
16402;DHT22;8310;44.626;11.176;2023-05-17T12:48:18;18.40;74.70
16402;DHT22;8310;44.626;11.176;2023-05-17T12:50:45;18.40;74.60
16402;DHT22;8310;44.626;11.176;2023-05-17T12:53:13;18.50;74.60
16402;DHT22;8310;44.626;11.176;2023-05-17T12:55:40;18.50;74.60
16402;DHT22;8310;44.626;11.176;2023-05-17T12:58:07;18.50;74.60
16402;DHT22;8310;44.626;11.176;2023-05-17T13:00:35;18.60;74.60
16402;DHT22;8310;44.626;11.176;2023-05-17T13:03:07;18.60;74.70
16402;DHT22;8310;44.626;11.176;2023-05-17T13:05:36;18.60;74.50
16402;DHT22;8310;44.626;11.176;2023-05-17T13:08:19;18.60;74.70
16402;DHT22;8310;44.626;11.176;2023-05-17T13:10:46;18.60;74.30
16402;DHT22;8310;44.626;11.176;2023-05-17T13:13:16;18.50;74.30
16402;DHT22;8310;44.626;11.176;2023-05-17T13:15:44;18.60;74.40
16402;DHT22;8310;44.626;11.176;2023-05-17T13:18:12;18.60;74.30
16402;DHT22;8310;44.626;11.176;2023-05-17T13:20:42;18.60;74.20
16402;DHT22;8310;44.626;11.176;2023-05-17T13:23:09;18.60;74.10
16402;DHT22;8310;44.626;11.176;2023-05-17T13:25:37;18.60;74.10
16402;DHT22;8310;44.626;11.176;2023-05-17T13:28:04;18.60;74.10
16402;DHT22;8310;44.626;11.176;2023-05-17T13:30:31;18.60;74.20
16402;DHT22;8310;44.626;11.176;2023-05-17T13:32:58;18.60;74.10
16402;DHT22;8310;44.626;11.176;2023-05-17T13:35:26;18.60;74.10
16402;DHT22;8310;44.626;11.176;2023-05-17T13:37:55;18.60;74.10
16402;DHT22;8310;44.626;11.176;2023-05-17T13:40:22;18.60;74.10
16402;DHT22;8310;44.626;11.176;2023-05-17T13:42:49;18.70;74.20
16402;DHT22;8310;44.626;11.176;2023-05-17T13:45:16;18.70;74.20
16402;DHT22;8310;44.626;11.176;2023-05-17T13:47:43;18.70;74.30
16402;DHT22;8310;44.626;11.176;2023-05-17T13:50:10;18.70;74.30
16402;DHT22;8310;44.626;11.176;2023-05-17T13:52:40;18.80;74.30
16402;DHT22;8310;44.626;11.176;2023-05-17T13:55:09;18.80;74.30
16402;DHT22;8310;44.626;11.176;2023-05-17T13:57:37;18.80;74.30
16402;DHT22;8310;44.626;11.176;2023-05-17T14:00:05;18.80;74.20
16402;DHT22;8310;44.626;11.176;2023-05-17T14:02:32;18.80;74.20
16402;DHT22;8310;44.626;11.176;2023-05-17T14:05:00;18.80;74.00
16402;DHT22;8310;44.626;11.176;2023-05-17T14:07:27;18.80;74.10
16402;DHT22;8310;44.626;11.176;2023-05-17T14:09:54;18.80;74.10
16402;DHT22;8310;44.626;11.176;2023-05-17T14:12:23;18.80;74.00
16402;DHT22;8310;44.626;11.176;2023-05-17T14:14:50;18.80;74.00
16402;DHT22;8310;44.626;11.176;2023-05-17T14:17:17;18.80;74.10
16402;DHT22;8310;44.626;11.176;2023-05-17T14:19:44;18.80;74.10
16402;DHT22;8310;44.626;11.176;2023-05-17T14:22:11;18.80;74.20
16402;DHT22;8310;44.626;11.176;2023-05-17T14:24:38;18.80;74.10
16402;DHT22;8310;44.626;11.176;2023-05-17T14:27:05;18.80;74.00
16402;DHT22;8310;44.626;11.176;2023-05-17T14:29:34;18.80;74.00
16402;DHT22;8310;44.626;11.176;2023-05-17T14:32:02;18.80;73.90
16402;DHT22;8310;44.626;11.176;2023-05-17T14:34:30;18.70;73.70
16402;DHT22;8310;44.626;11.176;2023-05-17T14:36:58;18.70;73.60
16402;DHT22;8310;44.626;11.176;2023-05-17T14:39:25;18.60;73.70
16402;DHT22;8310;44.626;11.176;2023-05-17T14:41:52;18.60;73.70
16402;DHT22;8310;44.626;11.176;2023-05-17T14:44:19;18.60;73.70
16402;DHT22;8310;44.626;11.176;2023-05-17T14:46:48;18.60;73.70
16402;DHT22;8310;44.626;11.176;2023-05-17T14:49:15;18.50;73.60
16402;DHT22;8310;44.626;11.176;2023-05-17T14:51:42;18.50;73.80
16402;DHT22;8310;44.626;11.176;2023-05-17T14:54:10;18.50;73.90
16402;DHT22;8310;44.626;11.176;2023-05-17T14:56:37;18.50;74.00
16402;DHT22;8310;44.626;11.176;2023-05-17T14:59:05;18.50;74.10
16402;DHT22;8310;44.626;11.176;2023-05-17T15:01:32;18.50;74.30
16402;DHT22;8310;44.626;11.176;2023-05-17T15:04:01;18.50;74.00
16402;DHT22;8310;44.626;11.176;2023-05-17T15:06:29;18.40;74.00
16402;DHT22;8310;44.626;11.176;2023-05-17T15:08:57;18.40;74.10
16402;DHT22;8310;44.626;11.176;2023-05-17T15:11:24;18.40;74.30
16402;DHT22;8310;44.626;11.176;2023-05-17T15:13:51;18.40;75.00
16402;DHT22;8310;44.626;11.176;2023-05-17T15:16:19;18.40;74.80
16402;DHT22;8310;44.626;11.176;2023-05-17T15:18:46;18.40;74.40
16402;DHT22;8310;44.626;11.176;2023-05-17T15:21:15;18.40;74.60
16402;DHT22;8310;44.626;11.176;2023-05-17T15:23:43;18.50;74.70
16402;DHT22;8310;44.626;11.176;2023-05-17T15:26:10;18.50;75.00
16402;DHT22;8310;44.626;11.176;2023-05-17T15:28:37;18.50;74.70
16402;DHT22;8310;44.626;11.176;2023-05-17T15:31:05;18.50;75.20
16402;DHT22;8310;44.626;11.176;2023-05-17T15:33:34;18.60;75.10
16402;DHT22;8310;44.626;11.176;2023-05-17T15:36:04;18.60;74.70
16402;DHT22;8310;44.626;11.176;2023-05-17T15:38:32;18.60;74.50